Cherryplain, New York
Current Conditions -  °F | °C
As of 7:52 PM on Sunday 21 Dec 2014 (Local Time) from KAQW Reporting Station
Light Snow Light Snow  
Wind Chill: 29°   Ceiling: 3400
Heat Index: 29°   Visibility: 2.5mi
Dew Point: 26°   Wind: 0mph
Humidity: 89%   Direction: NA
Pressure: 30.34"   Gusts: NA
Location:  42.6328°N, 73.3562°W
Report Text: KAQW 220052Z AUTO 00000KT 2 1/2SM -SN BR SCT023 OVC034 M02/M03 A3034 RMK AO2 SNB27 SLP283 P0000 T10171033
Loading
Personal Weather Stations






























Interactive Weather Map New forecast layout! Learn more

10-Day Weather Forecast

Advertisements
Track Severe Weather on mobile